sensor_id;sensor_type;location;lat;lon;timestamp;P1;durP1;ratioP1;P2;durP2;ratioP2
33672;SDS011;20011;51.510;9.942;2023-02-13T00:00:46;19.83;;;11.35;;
33672;SDS011;20011;51.510;9.942;2023-02-13T00:03:13;20.60;;;10.82;;
33672;SDS011;20011;51.510;9.942;2023-02-13T00:05:40;16.23;;;10.23;;
33672;SDS011;20011;51.510;9.942;2023-02-13T00:08:07;19.15;;;11.13;;
33672;SDS011;20011;51.510;9.942;2023-02-13T00:10:34;18.60;;;11.00;;
33672;SDS011;20011;51.510;9.942;2023-02-13T00:13:01;20.17;;;10.27;;
33672;SDS011;20011;51.510;9.942;2023-02-13T00:15:28;17.70;;;10.73;;
33672;SDS011;20011;51.510;9.942;2023-02-13T00:17:55;18.38;;;11.35;;
33672;SDS011;20011;51.510;9.942;2023-02-13T00:20:22;17.73;;;11.10;;
33672;SDS011;20011;51.510;9.942;2023-02-13T00:22:49;14.55;;;10.07;;
33672;SDS011;20011;51.510;9.942;2023-02-13T00:25:16;19.15;;;11.20;;
33672;SDS011;20011;51.510;9.942;2023-02-13T00:27:43;17.00;;;10.88;;
33672;SDS011;20011;51.510;9.942;2023-02-13T00:30:10;15.93;;;9.65;;
33672;SDS011;20011;51.510;9.942;2023-02-13T00:32:37;25.95;;;11.60;;
33672;SDS011;20011;51.510;9.942;2023-02-13T00:35:04;18.13;;;11.23;;
33672;SDS011;20011;51.510;9.942;2023-02-13T00:37:32;18.45;;;11.75;;
33672;SDS011;20011;51.510;9.942;2023-02-13T00:39:59;19.08;;;11.68;;
33672;SDS011;20011;51.510;9.942;2023-02-13T00:42:26;18.48;;;11.15;;
33672;SDS011;20011;51.510;9.942;2023-02-13T00:44:53;27.65;;;11.35;;
33672;SDS011;20011;51.510;9.942;2023-02-13T00:47:21;21.38;;;11.55;;
33672;SDS011;20011;51.510;9.942;2023-02-13T00:49:48;21.77;;;12.25;;
33672;SDS011;20011;51.510;9.942;2023-02-13T00:52:15;22.50;;;12.02;;
33672;SDS011;20011;51.510;9.942;2023-02-13T00:54:42;20.83;;;11.13;;
33672;SDS011;20011;51.510;9.942;2023-02-13T00:57:11;17.70;;;12.05;;
33672;SDS011;20011;51.510;9.942;2023-02-13T00:59:37;20.17;;;11.45;;
33672;SDS011;20011;51.510;9.942;2023-02-13T01:02:04;18.33;;;11.77;;
33672;SDS011;20011;51.510;9.942;2023-02-13T01:04:31;21.50;;;12.30;;
33672;SDS011;20011;51.510;9.942;2023-02-13T01:06:58;22.95;;;12.15;;
33672;SDS011;20011;51.510;9.942;2023-02-13T01:09:25;22.02;;;12.60;;
33672;SDS011;20011;51.510;9.942;2023-02-13T01:11:52;28.83;;;13.30;;
33672;SDS011;20011;51.510;9.942;2023-02-13T01:14:19;18.27;;;11.88;;
33672;SDS011;20011;51.510;9.942;2023-02-13T01:16:47;20.27;;;12.30;;
33672;SDS011;20011;51.510;9.942;2023-02-13T01:19:14;19.67;;;11.45;;
33672;SDS011;20011;51.510;9.942;2023-02-13T01:21:42;20.17;;;11.70;;
33672;SDS011;20011;51.510;9.942;2023-02-13T01:24:09;18.63;;;11.05;;
33672;SDS011;20011;51.510;9.942;2023-02-13T01:26:36;18.83;;;11.48;;
33672;SDS011;20011;51.510;9.942;2023-02-13T01:29:03;22.55;;;11.88;;
33672;SDS011;20011;51.510;9.942;2023-02-13T01:31:31;20.58;;;11.63;;
33672;SDS011;20011;51.510;9.942;2023-02-13T01:33:58;18.98;;;12.15;;
33672;SDS011;20011;51.510;9.942;2023-02-13T01:36:25;19.60;;;11.10;;
33672;SDS011;20011;51.510;9.942;2023-02-13T01:38:54;24.40;;;12.20;;
33672;SDS011;20011;51.510;9.942;2023-02-13T01:41:22;19.95;;;12.45;;
33672;SDS011;20011;51.510;9.942;2023-02-13T01:43:52;17.10;;;10.48;;
33672;SDS011;20011;51.510;9.942;2023-02-13T01:46:42;19.80;;;11.57;;
33672;SDS011;20011;51.510;9.942;2023-02-13T01:49:10;19.75;;;11.45;;
33672;SDS011;20011;51.510;9.942;2023-02-13T01:51:41;17.35;;;11.15;;
33672;SDS011;20011;51.510;9.942;2023-02-13T01:54:16;20.17;;;12.10;;
33672;SDS011;20011;51.510;9.942;2023-02-13T01:56:54;20.10;;;11.07;;
33672;SDS011;20011;51.510;9.942;2023-02-13T01:59:28;24.13;;;11.55;;
33672;SDS011;20011;51.510;9.942;2023-02-13T02:02:00;19.42;;;11.50;;
33672;SDS011;20011;51.510;9.942;2023-02-13T02:04:29;20.83;;;12.25;;
33672;SDS011;20011;51.510;9.942;2023-02-13T02:07:22;20.17;;;12.10;;
33672;SDS011;20011;51.510;9.942;2023-02-13T02:10:00;18.67;;;11.13;;
33672;SDS011;20011;51.510;9.942;2023-02-13T02:12:32;18.90;;;11.30;;
33672;SDS011;20011;51.510;9.942;2023-02-13T02:15:10;18.60;;;11.38;;
33672;SDS011;20011;51.510;9.942;2023-02-13T02:17:37;17.98;;;10.95;;
33672;SDS011;20011;51.510;9.942;2023-02-13T02:34:35;21.58;;;11.27;;
33672;SDS011;20011;51.510;9.942;2023-02-13T02:37:28;20.17;;;11.75;;
33672;SDS011;20011;51.510;9.942;2023-02-13T02:45:38;20.20;;;11.50;;
33672;SDS011;20011;51.510;9.942;2023-02-13T02:51:39;16.98;;;9.68;;
33672;SDS011;20011;51.510;9.942;2023-02-13T02:54:26;21.33;;;8.93;;
33672;SDS011;20011;51.510;9.942;2023-02-13T02:57:23;13.68;;;8.02;;
33672;SDS011;20011;51.510;9.942;2023-02-13T03:00:17;11.98;;;6.47;;
33672;SDS011;20011;51.510;9.942;2023-02-13T03:03:05;9.95;;;6.32;;
33672;SDS011;20011;51.510;9.942;2023-02-13T03:06:01;8.82;;;5.28;;
33672;SDS011;20011;51.510;9.942;2023-02-13T03:08:37;11.05;;;5.78;;
33672;SDS011;20011;51.510;9.942;2023-02-13T03:11:29;5.68;;;4.13;;
33672;SDS011;20011;51.510;9.942;2023-02-13T03:14:17;7.05;;;4.38;;
33672;SDS011;20011;51.510;9.942;2023-02-13T03:16:46;6.15;;;4.30;;
33672;SDS011;20011;51.510;9.942;2023-02-13T03:19:36;5.90;;;3.90;;
33672;SDS011;20011;51.510;9.942;2023-02-13T03:25:23;7.00;;;4.53;;
33672;SDS011;20011;51.510;9.942;2023-02-13T03:28:17;6.03;;;4.32;;
33672;SDS011;20011;51.510;9.942;2023-02-13T03:34:09;5.60;;;3.83;;
33672;SDS011;20011;51.510;9.942;2023-02-13T03:36:43;4.50;;;3.67;;
33672;SDS011;20011;51.510;9.942;2023-02-13T03:45:13;3.85;;;2.95;;
33672;SDS011;20011;51.510;9.942;2023-02-13T03:48:17;4.43;;;2.65;;
33672;SDS011;20011;51.510;9.942;2023-02-13T03:51:13;5.13;;;3.15;;
33672;SDS011;20011;51.510;9.942;2023-02-13T03:53:45;5.88;;;2.60;;
33672;SDS011;20011;51.510;9.942;2023-02-13T03:56:16;4.15;;;2.28;;
33672;SDS011;20011;51.510;9.942;2023-02-13T03:59:04;3.33;;;2.45;;
33672;SDS011;20011;51.510;9.942;2023-02-13T04:01:55;3.28;;;2.25;;
33672;SDS011;20011;51.510;9.942;2023-02-13T04:04:33;4.88;;;2.42;;
33672;SDS011;20011;51.510;9.942;2023-02-13T04:07:05;4.70;;;2.45;;
33672;SDS011;20011;51.510;9.942;2023-02-13T04:09:37;4.45;;;2.17;;
33672;SDS011;20011;51.510;9.942;2023-02-13T04:12:15;3.40;;;2.30;;
33672;SDS011;20011;51.510;9.942;2023-02-13T04:15:30;3.40;;;2.58;;
33672;SDS011;20011;51.510;9.942;2023-02-13T04:18:07;3.30;;;2.17;;
33672;SDS011;20011;51.510;9.942;2023-02-13T04:20:39;3.97;;;2.17;;
33672;SDS011;20011;51.510;9.942;2023-02-13T04:23:07;2.00;;;1.80;;
33672;SDS011;20011;51.510;9.942;2023-02-13T04:25:36;1.55;;;1.42;;
33672;SDS011;20011;51.510;9.942;2023-02-13T04:28:05;2.30;;;1.63;;
33672;SDS011;20011;51.510;9.942;2023-02-13T04:30:32;1.75;;;1.55;;
33672;SDS011;20011;51.510;9.942;2023-02-13T04:32:59;5.00;;;1.67;;
33672;SDS011;20011;51.510;9.942;2023-02-13T04:35:26;2.25;;;2.05;;
33672;SDS011;20011;51.510;9.942;2023-02-13T04:37:53;2.65;;;1.55;;
33672;SDS011;20011;51.510;9.942;2023-02-13T04:40:20;1.88;;;1.30;;
33672;SDS011;20011;51.510;9.942;2023-02-13T04:42:48;1.20;;;1.10;;
33672;SDS011;20011;51.510;9.942;2023-02-13T04:45:15;1.40;;;1.20;;
33672;SDS011;20011;51.510;9.942;2023-02-13T04:47:42;2.28;;;0.90;;
33672;SDS011;20011;51.510;9.942;2023-02-13T04:50:14;0.95;;;0.93;;
33672;SDS011;20011;51.510;9.942;2023-02-13T04:52:41;1.13;;;1.02;;
33672;SDS011;20011;51.510;9.942;2023-02-13T04:55:09;1.80;;;1.25;;
33672;SDS011;20011;51.510;9.942;2023-02-13T04:57:36;1.50;;;1.30;;
33672;SDS011;20011;51.510;9.942;2023-02-13T05:00:04;2.22;;;1.30;;
33672;SDS011;20011;51.510;9.942;2023-02-13T05:02:31;2.58;;;1.60;;
33672;SDS011;20011;51.510;9.942;2023-02-13T05:04:58;2.28;;;1.70;;
33672;SDS011;20011;51.510;9.942;2023-02-13T05:07:25;1.48;;;1.20;;
33672;SDS011;20011;51.510;9.942;2023-02-13T05:09:53;2.60;;;1.10;;
33672;SDS011;20011;51.510;9.942;2023-02-13T05:12:20;1.50;;;1.33;;
33672;SDS011;20011;51.510;9.942;2023-02-13T05:14:46;1.30;;;1.17;;
33672;SDS011;20011;51.510;9.942;2023-02-13T05:17:13;1.15;;;1.05;;
33672;SDS011;20011;51.510;9.942;2023-02-13T05:19:40;1.50;;;1.35;;
33672;SDS011;20011;51.510;9.942;2023-02-13T05:22:07;1.50;;;1.30;;
33672;SDS011;20011;51.510;9.942;2023-02-13T05:24:53;2.53;;;1.40;;
33672;SDS011;20011;51.510;9.942;2023-02-13T05:27:20;1.63;;;1.35;;
33672;SDS011;20011;51.510;9.942;2023-02-13T05:29:48;1.23;;;1.13;;
33672;SDS011;20011;51.510;9.942;2023-02-13T05:32:14;1.45;;;1.35;;
33672;SDS011;20011;51.510;9.942;2023-02-13T05:34:41;3.83;;;1.65;;
33672;SDS011;20011;51.510;9.942;2023-02-13T05:37:08;3.08;;;2.58;;
33672;SDS011;20011;51.510;9.942;2023-02-13T05:39:35;2.22;;;2.03;;
33672;SDS011;20011;51.510;9.942;2023-02-13T05:42:02;3.35;;;2.42;;
33672;SDS011;20011;51.510;9.942;2023-02-13T05:44:30;4.35;;;3.05;;
33672;SDS011;20011;51.510;9.942;2023-02-13T05:46:57;3.50;;;2.80;;
33672;SDS011;20011;51.510;9.942;2023-02-13T05:49:24;3.15;;;2.55;;
33672;SDS011;20011;51.510;9.942;2023-02-13T05:51:51;3.22;;;2.35;;
33672;SDS011;20011;51.510;9.942;2023-02-13T05:54:18;5.03;;;2.67;;
33672;SDS011;20011;51.510;9.942;2023-02-13T05:56:45;3.20;;;2.50;;
33672;SDS011;20011;51.510;9.942;2023-02-13T05:59:12;3.97;;;2.30;;
33672;SDS011;20011;51.510;9.942;2023-02-13T06:01:39;3.03;;;1.83;;
33672;SDS011;20011;51.510;9.942;2023-02-13T06:04:06;3.30;;;2.08;;
33672;SDS011;20011;51.510;9.942;2023-02-13T06:06:34;2.50;;;2.22;;
33672;SDS011;20011;51.510;9.942;2023-02-13T06:09:01;2.60;;;2.40;;
33672;SDS011;20011;51.510;9.942;2023-02-13T06:11:28;2.90;;;1.90;;
33672;SDS011;20011;51.510;9.942;2023-02-13T06:13:54;3.00;;;1.88;;
33672;SDS011;20011;51.510;9.942;2023-02-13T06:16:21;4.68;;;2.35;;
33672;SDS011;20011;51.510;9.942;2023-02-13T06:18:49;2.60;;;2.22;;
33672;SDS011;20011;51.510;9.942;2023-02-13T06:21:15;2.28;;;2.08;;
33672;SDS011;20011;51.510;9.942;2023-02-13T06:23:42;2.60;;;2.00;;
33672;SDS011;20011;51.510;9.942;2023-02-13T06:26:09;2.00;;;1.80;;
33672;SDS011;20011;51.510;9.942;2023-02-13T06:28:37;2.85;;;2.22;;
33672;SDS011;20011;51.510;9.942;2023-02-13T06:31:04;2.83;;;2.00;;
33672;SDS011;20011;51.510;9.942;2023-02-13T06:33:31;1.92;;;1.65;;
33672;SDS011;20011;51.510;9.942;2023-02-13T06:35:58;2.05;;;1.85;;
33672;SDS011;20011;51.510;9.942;2023-02-13T06:38:25;2.42;;;2.10;;
33672;SDS011;20011;51.510;9.942;2023-02-13T06:40:52;3.53;;;2.47;;
33672;SDS011;20011;51.510;9.942;2023-02-13T06:43:24;5.47;;;2.55;;
33672;SDS011;20011;51.510;9.942;2023-02-13T06:45:51;2.80;;;2.17;;
33672;SDS011;20011;51.510;9.942;2023-02-13T06:48:19;3.58;;;2.35;;
33672;SDS011;20011;51.510;9.942;2023-02-13T06:50:46;2.95;;;2.50;;
33672;SDS011;20011;51.510;9.942;2023-02-13T06:53:13;2.35;;;2.15;;
33672;SDS011;20011;51.510;9.942;2023-02-13T06:55:39;3.00;;;2.10;;
33672;SDS011;20011;51.510;9.942;2023-02-13T06:58:06;2.70;;;2.17;;
33672;SDS011;20011;51.510;9.942;2023-02-13T07:00:33;2.38;;;2.17;;
33672;SDS011;20011;51.510;9.942;2023-02-13T07:03:01;1.88;;;1.77;;
33672;SDS011;20011;51.510;9.942;2023-02-13T07:05:30;2.72;;;1.83;;
33672;SDS011;20011;51.510;9.942;2023-02-13T07:07:57;6.50;;;1.63;;
33672;SDS011;20011;51.510;9.942;2023-02-13T07:10:24;2.10;;;1.83;;
33672;SDS011;20011;51.510;9.942;2023-02-13T07:12:51;1.75;;;1.30;;
33672;SDS011;20011;51.510;9.942;2023-02-13T07:15:31;2.25;;;1.52;;
33672;SDS011;20011;51.510;9.942;2023-02-13T07:17:59;1.65;;;1.55;;
33672;SDS011;20011;51.510;9.942;2023-02-13T07:20:26;1.70;;;1.27;;
33672;SDS011;20011;51.510;9.942;2023-02-13T07:22:57;1.58;;;1.33;;
33672;SDS011;20011;51.510;9.942;2023-02-13T07:25:25;1.58;;;1.35;;
33672;SDS011;20011;51.510;9.942;2023-02-13T07:27:52;3.67;;;1.60;;
33672;SDS011;20011;51.510;9.942;2023-02-13T07:30:19;2.28;;;1.83;;
33672;SDS011;20011;51.510;9.942;2023-02-13T07:32:47;4.68;;;3.10;;
33672;SDS011;20011;51.510;9.942;2023-02-13T07:35:14;3.70;;;2.13;;
33672;SDS011;20011;51.510;9.942;2023-02-13T07:37:41;2.28;;;1.52;;
33672;SDS011;20011;51.510;9.942;2023-02-13T07:40:08;3.15;;;1.58;;
33672;SDS011;20011;51.510;9.942;2023-02-13T07:42:35;2.50;;;1.60;;
33672;SDS011;20011;51.510;9.942;2023-02-13T07:45:02;1.88;;;1.50;;
33672;SDS011;20011;51.510;9.942;2023-02-13T07:47:32;2.08;;;1.88;;
33672;SDS011;20011;51.510;9.942;2023-02-13T07:50:00;3.47;;;1.55;;
33672;SDS011;20011;51.510;9.942;2023-02-13T07:52:27;1.95;;;1.50;;
33672;SDS011;20011;51.510;9.942;2023-02-13T07:54:54;1.90;;;1.70;;
33672;SDS011;20011;51.510;9.942;2023-02-13T07:57:21;2.30;;;1.70;;
33672;SDS011;20011;51.510;9.942;2023-02-13T07:59:49;1.80;;;1.40;;
33672;SDS011;20011;51.510;9.942;2023-02-13T08:02:15;1.80;;;1.30;;
33672;SDS011;20011;51.510;9.942;2023-02-13T08:04:42;1.70;;;1.17;;
33672;SDS011;20011;51.510;9.942;2023-02-13T08:07:12;1.40;;;1.30;;
33672;SDS011;20011;51.510;9.942;2023-02-13T08:09:39;1.88;;;1.10;;
33672;SDS011;20011;51.510;9.942;2023-02-13T08:12:25;1.80;;;1.20;;
33672;SDS011;20011;51.510;9.942;2023-02-13T08:14:52;2.03;;;1.30;;
33672;SDS011;20011;51.510;9.942;2023-02-13T08:17:19;2.75;;;1.50;;
33672;SDS011;20011;51.510;9.942;2023-02-13T08:19:46;2.53;;;1.60;;
33672;SDS011;20011;51.510;9.942;2023-02-13T08:22:13;1.83;;;1.40;;
33672;SDS011;20011;51.510;9.942;2023-02-13T08:24:40;2.42;;;1.92;;
33672;SDS011;20011;51.510;9.942;2023-02-13T08:27:10;3.03;;;2.22;;
33672;SDS011;20011;51.510;9.942;2023-02-13T08:29:38;3.90;;;2.13;;
33672;SDS011;20011;51.510;9.942;2023-02-13T08:32:05;2.63;;;1.98;;
33672;SDS011;20011;51.510;9.942;2023-02-13T08:34:32;4.35;;;1.88;;
33672;SDS011;20011;51.510;9.942;2023-02-13T08:37:00;3.10;;;2.05;;
33672;SDS011;20011;51.510;9.942;2023-02-13T08:39:28;2.50;;;2.10;;
33672;SDS011;20011;51.510;9.942;2023-02-13T08:41:55;2.50;;;1.77;;
33672;SDS011;20011;51.510;9.942;2023-02-13T08:44:21;1.58;;;1.48;;
33672;SDS011;20011;51.510;9.942;2023-02-13T08:46:48;3.65;;;2.40;;
33672;SDS011;20011;51.510;9.942;2023-02-13T08:49:15;2.65;;;2.08;;
33672;SDS011;20011;51.510;9.942;2023-02-13T08:51:42;2.75;;;2.30;;
33672;SDS011;20011;51.510;9.942;2023-02-13T08:54:09;4.35;;;2.17;;
33672;SDS011;20011;51.510;9.942;2023-02-13T08:56:36;6.53;;;2.63;;
33672;SDS011;20011;51.510;9.942;2023-02-13T08:59:03;4.38;;;3.10;;
33672;SDS011;20011;51.510;9.942;2023-02-13T09:01:30;3.88;;;2.83;;
33672;SDS011;20011;51.510;9.942;2023-02-13T09:03:57;3.03;;;2.72;;
33672;SDS011;20011;51.510;9.942;2023-02-13T09:06:24;4.60;;;2.72;;
33672;SDS011;20011;51.510;9.942;2023-02-13T09:08:52;3.05;;;2.60;;
33672;SDS011;20011;51.510;9.942;2023-02-13T09:11:19;4.22;;;2.92;;
33672;SDS011;20011;51.510;9.942;2023-02-13T09:13:49;6.47;;;3.25;;
33672;SDS011;20011;51.510;9.942;2023-02-13T09:16:18;4.63;;;3.05;;
33672;SDS011;20011;51.510;9.942;2023-02-13T09:18:46;6.00;;;3.40;;
33672;SDS011;20011;51.510;9.942;2023-02-13T09:21:14;5.40;;;3.20;;
33672;SDS011;20011;51.510;9.942;2023-02-13T09:23:42;6.47;;;3.58;;
33672;SDS011;20011;51.510;9.942;2023-02-13T09:26:10;5.07;;;3.33;;
33672;SDS011;20011;51.510;9.942;2023-02-13T09:28:39;7.00;;;3.95;;
33672;SDS011;20011;51.510;9.942;2023-02-13T09:31:07;6.32;;;3.83;;
33672;SDS011;20011;51.510;9.942;2023-02-13T09:33:35;5.57;;;3.50;;
33672;SDS011;20011;51.510;9.942;2023-02-13T09:36:06;6.88;;;4.05;;
33672;SDS011;20011;51.510;9.942;2023-02-13T09:38:40;9.85;;;4.50;;
33672;SDS011;20011;51.510;9.942;2023-02-13T09:41:18;8.52;;;4.50;;
33672;SDS011;20011;51.510;9.942;2023-02-13T09:43:52;8.52;;;4.68;;
33672;SDS011;20011;51.510;9.942;2023-02-13T09:46:32;7.30;;;4.93;;
33672;SDS011;20011;51.510;9.942;2023-02-13T09:49:07;6.68;;;4.63;;
33672;SDS011;20011;51.510;9.942;2023-02-13T09:51:40;8.40;;;5.25;;
33672;SDS011;20011;51.510;9.942;2023-02-13T09:54:11;8.52;;;5.18;;
33672;SDS011;20011;51.510;9.942;2023-02-13T09:59:32;8.27;;;5.47;;
33672;SDS011;20011;51.510;9.942;2023-02-13T10:02:22;8.05;;;5.28;;
33672;SDS011;20011;51.510;9.942;2023-02-13T10:15:47;11.18;;;6.35;;
33672;SDS011;20011;51.510;9.942;2023-02-13T10:18:24;10.85;;;6.32;;
33672;SDS011;20011;51.510;9.942;2023-02-13T10:20:58;12.27;;;6.78;;
33672;SDS011;20011;51.510;9.942;2023-02-13T10:26:19;10.73;;;6.63;;
33672;SDS011;20011;51.510;9.942;2023-02-13T10:28:57;13.07;;;6.50;;
33672;SDS011;20011;51.510;9.942;2023-02-13T10:31:48;16.33;;;7.53;;
33672;SDS011;20011;51.510;9.942;2023-02-13T10:34:17;16.20;;;7.53;;
33672;SDS011;20011;51.510;9.942;2023-02-13T10:36:49;11.75;;;7.03;;
33672;SDS011;20011;51.510;9.942;2023-02-13T10:50:18;12.75;;;6.93;;
33672;SDS011;20011;51.510;9.942;2023-02-13T11:01:16;12.35;;;7.10;;
33672;SDS011;20011;51.510;9.942;2023-02-13T11:04:30;11.65;;;7.47;;
33672;SDS011;20011;51.510;9.942;2023-02-13T11:06:53;10.88;;;7.18;;
33672;SDS011;20011;51.510;9.942;2023-02-13T11:09:23;12.30;;;7.43;;
33672;SDS011;20011;51.510;9.942;2023-02-13T11:11:51;13.13;;;7.50;;
33672;SDS011;20011;51.510;9.942;2023-02-13T11:14:19;15.68;;;8.55;;
33672;SDS011;20011;51.510;9.942;2023-02-13T11:16:57;16.13;;;8.70;;
33672;SDS011;20011;51.510;9.942;2023-02-13T11:19:47;13.55;;;8.30;;
33672;SDS011;20011;51.510;9.942;2023-02-13T11:24:57;14.37;;;8.63;;
33672;SDS011;20011;51.510;9.942;2023-02-13T11:27:46;13.57;;;8.98;;
33672;SDS011;20011;51.510;9.942;2023-02-13T11:33:21;13.63;;;8.25;;
33672;SDS011;20011;51.510;9.942;2023-02-13T11:36:08;12.38;;;6.90;;
33672;SDS011;20011;51.510;9.942;2023-02-13T11:38:39;14.38;;;8.75;;
33672;SDS011;20011;51.510;9.942;2023-02-13T11:41:13;14.15;;;8.00;;
33672;SDS011;20011;51.510;9.942;2023-02-13T11:46:18;14.82;;;8.98;;
33672;SDS011;20011;51.510;9.942;2023-02-13T11:49:05;14.07;;;8.75;;
33672;SDS011;20011;51.510;9.942;2023-02-13T11:51:44;12.00;;;7.88;;
33672;SDS011;20011;51.510;9.942;2023-02-13T11:59:49;11.52;;;8.25;;
33672;SDS011;20011;51.510;9.942;2023-02-13T12:02:19;13.65;;;7.63;;
33672;SDS011;20011;51.510;9.942;2023-02-13T12:04:48;13.32;;;8.27;;
33672;SDS011;20011;51.510;9.942;2023-02-13T12:07:24;14.85;;;9.55;;
33672;SDS011;20011;51.510;9.942;2023-02-13T12:12:24;13.15;;;8.18;;
33672;SDS011;20011;51.510;9.942;2023-02-13T12:15:17;12.95;;;7.78;;
33672;SDS011;20011;51.510;9.942;2023-02-13T12:17:56;15.48;;;10.07;;
33672;SDS011;20011;51.510;9.942;2023-02-13T12:20:59;13.25;;;8.52;;
33672;SDS011;20011;51.510;9.942;2023-02-13T12:28:56;12.88;;;8.15;;
33672;SDS011;20011;51.510;9.942;2023-02-13T12:31:54;14.23;;;8.48;;
33672;SDS011;20011;51.510;9.942;2023-02-13T12:37:33;15.25;;;8.05;;
33672;SDS011;20011;51.510;9.942;2023-02-13T12:54:54;13.90;;;8.73;;
33672;SDS011;20011;51.510;9.942;2023-02-13T13:16:49;14.15;;;9.13;;
33672;SDS011;20011;51.510;9.942;2023-02-13T13:22:19;14.13;;;8.60;;
33672;SDS011;20011;51.510;9.942;2023-02-13T13:27:41;12.45;;;8.40;;
33672;SDS011;20011;51.510;9.942;2023-02-13T13:30:20;15.93;;;9.40;;
33672;SDS011;20011;51.510;9.942;2023-02-13T13:33:05;15.32;;;9.35;;
33672;SDS011;20011;51.510;9.942;2023-02-13T13:35:48;15.68;;;9.00;;
33672;SDS011;20011;51.510;9.942;2023-02-13T13:41:26;14.27;;;9.23;;
33672;SDS011;20011;51.510;9.942;2023-02-13T13:44:14;17.70;;;9.85;;
33672;SDS011;20011;51.510;9.942;2023-02-13T13:47:17;14.35;;;7.90;;
33672;SDS011;20011;51.510;9.942;2023-02-13T14:02:38;14.82;;;8.57;;
33672;SDS011;20011;51.510;9.942;2023-02-13T14:07:54;12.73;;;7.82;;
33672;SDS011;20011;51.510;9.942;2023-02-13T14:18:06;11.45;;;7.20;;
33672;SDS011;20011;51.510;9.942;2023-02-13T14:23:32;10.70;;;7.28;;
33672;SDS011;20011;51.510;9.942;2023-02-13T14:31:25;13.52;;;8.00;;
33672;SDS011;20011;51.510;9.942;2023-02-13T14:34:38;12.95;;;7.47;;
33672;SDS011;20011;51.510;9.942;2023-02-13T14:36:41;18.55;;;10.13;;
33672;SDS011;20011;51.510;9.942;2023-02-13T14:39:25;16.10;;;9.52;;
33672;SDS011;20011;51.510;9.942;2023-02-13T14:41:56;18.67;;;10.10;;
33672;SDS011;20011;51.510;9.942;2023-02-13T14:47:10;21.50;;;10.57;;
33672;SDS011;20011;51.510;9.942;2023-02-13T14:50:13;24.90;;;10.05;;
33672;SDS011;20011;51.510;9.942;2023-02-13T14:52:50;24.58;;;10.70;;
33672;SDS011;20011;51.510;9.942;2023-02-13T14:55:33;19.42;;;10.00;;
33672;SDS011;20011;51.510;9.942;2023-02-13T14:58:07;18.13;;;10.27;;
33672;SDS011;20011;51.510;9.942;2023-02-13T15:00:42;23.92;;;11.60;;
33672;SDS011;20011;51.510;9.942;2023-02-13T15:03:23;19.25;;;11.07;;
33672;SDS011;20011;51.510;9.942;2023-02-13T15:05:55;17.92;;;10.27;;
33672;SDS011;20011;51.510;9.942;2023-02-13T15:08:31;23.00;;;11.57;;
33672;SDS011;20011;51.510;9.942;2023-02-13T15:11:02;21.85;;;10.77;;
33672;SDS011;20011;51.510;9.942;2023-02-13T15:13:32;16.50;;;10.88;;
33672;SDS011;20011;51.510;9.942;2023-02-13T15:16:03;19.40;;;11.20;;
33672;SDS011;20011;51.510;9.942;2023-02-13T15:21:12;18.00;;;10.38;;
33672;SDS011;20011;51.510;9.942;2023-02-13T15:23:41;19.25;;;11.00;;
33672;SDS011;20011;51.510;9.942;2023-02-13T15:26:17;20.10;;;11.55;;
33672;SDS011;20011;51.510;9.942;2023-02-13T15:29:00;16.15;;;10.35;;
33672;SDS011;20011;51.510;9.942;2023-02-13T15:31:36;16.05;;;10.35;;
33672;SDS011;20011;51.510;9.942;2023-02-13T15:34:16;23.08;;;11.68;;
33672;SDS011;20011;51.510;9.942;2023-02-13T15:36:51;18.05;;;10.55;;
33672;SDS011;20011;51.510;9.942;2023-02-13T15:39:21;17.88;;;11.23;;
33672;SDS011;20011;51.510;9.942;2023-02-13T15:41:57;24.58;;;11.50;;
33672;SDS011;20011;51.510;9.942;2023-02-13T15:44:33;22.83;;;11.13;;
33672;SDS011;20011;51.510;9.942;2023-02-13T15:47:48;18.33;;;10.00;;
33672;SDS011;20011;51.510;9.942;2023-02-13T15:49:53;22.02;;;10.27;;
33672;SDS011;20011;51.510;9.942;2023-02-13T15:52:26;19.45;;;10.73;;
33672;SDS011;20011;51.510;9.942;2023-02-13T15:54:59;16.27;;;9.90;;
33672;SDS011;20011;51.510;9.942;2023-02-13T15:57:27;18.30;;;10.80;;
33672;SDS011;20011;51.510;9.942;2023-02-13T15:59:54;16.02;;;9.98;;
33672;SDS011;20011;51.510;9.942;2023-02-13T16:02:32;13.25;;;7.63;;
33672;SDS011;20011;51.510;9.942;2023-02-13T16:05:08;13.23;;;7.95;;
33672;SDS011;20011;51.510;9.942;2023-02-13T16:07:51;12.50;;;7.38;;
33672;SDS011;20011;51.510;9.942;2023-02-13T16:10:33;12.20;;;7.50;;
33672;SDS011;20011;51.510;9.942;2023-02-13T16:13:02;14.00;;;7.43;;
33672;SDS011;20011;51.510;9.942;2023-02-13T16:17:59;15.95;;;7.15;;
33672;SDS011;20011;51.510;9.942;2023-02-13T16:20:29;13.77;;;7.87;;
33672;SDS011;20011;51.510;9.942;2023-02-13T16:23:02;9.32;;;6.45;;
33672;SDS011;20011;51.510;9.942;2023-02-13T16:25:33;10.98;;;6.97;;
33672;SDS011;20011;51.510;9.942;2023-02-13T16:30:36;14.93;;;8.43;;
33672;SDS011;20011;51.510;9.942;2023-02-13T16:35:46;17.60;;;9.55;;
33672;SDS011;20011;51.510;9.942;2023-02-13T16:40:50;14.27;;;7.40;;
33672;SDS011;20011;51.510;9.942;2023-02-13T16:51:29;13.15;;;8.57;;
33672;SDS011;20011;51.510;9.942;2023-02-13T16:54:16;12.95;;;8.75;;
33672;SDS011;20011;51.510;9.942;2023-02-13T16:56:47;14.40;;;9.02;;
33672;SDS011;20011;51.510;9.942;2023-02-13T17:02:10;12.75;;;8.88;;
33672;SDS011;20011;51.510;9.942;2023-02-13T17:04:42;15.20;;;9.27;;
33672;SDS011;20011;51.510;9.942;2023-02-13T17:07:15;15.23;;;8.23;;
33672;SDS011;20011;51.510;9.942;2023-02-13T17:09:44;16.63;;;8.93;;
33672;SDS011;20011;51.510;9.942;2023-02-13T17:12:17;16.42;;;8.38;;
33672;SDS011;20011;51.510;9.942;2023-02-13T17:14:44;13.75;;;7.97;;
33672;SDS011;20011;51.510;9.942;2023-02-13T17:17:12;14.48;;;8.35;;
33672;SDS011;20011;51.510;9.942;2023-02-13T17:19:44;14.50;;;7.93;;
33672;SDS011;20011;51.510;9.942;2023-02-13T17:25:19;13.02;;;8.10;;
33672;SDS011;20011;51.510;9.942;2023-02-13T17:27:55;15.70;;;7.80;;
33672;SDS011;20011;51.510;9.942;2023-02-13T17:30:25;18.20;;;9.13;;
33672;SDS011;20011;51.510;9.942;2023-02-13T17:35:25;20.02;;;8.18;;
33672;SDS011;20011;51.510;9.942;2023-02-13T17:37:52;11.52;;;7.63;;
33672;SDS011;20011;51.510;9.942;2023-02-13T17:40:20;13.93;;;8.38;;
33672;SDS011;20011;51.510;9.942;2023-02-13T17:42:51;17.15;;;8.13;;
33672;SDS011;20011;51.510;9.942;2023-02-13T17:45:21;13.13;;;8.48;;
33672;SDS011;20011;51.510;9.942;2023-02-13T17:47:49;16.38;;;9.07;;
33672;SDS011;20011;51.510;9.942;2023-02-13T17:50:16;17.52;;;9.77;;
33672;SDS011;20011;51.510;9.942;2023-02-13T17:52:44;15.85;;;9.70;;
33672;SDS011;20011;51.510;9.942;2023-02-13T17:55:18;18.83;;;10.02;;
33672;SDS011;20011;51.510;9.942;2023-02-13T17:57:46;17.48;;;10.55;;
33672;SDS011;20011;51.510;9.942;2023-02-13T18:00:14;16.15;;;9.65;;
33672;SDS011;20011;51.510;9.942;2023-02-13T18:02:42;17.08;;;9.95;;
33672;SDS011;20011;51.510;9.942;2023-02-13T18:05:10;17.70;;;10.27;;
33672;SDS011;20011;51.510;9.942;2023-02-13T18:07:37;13.40;;;9.05;;
33672;SDS011;20011;51.510;9.942;2023-02-13T18:10:07;16.70;;;9.50;;
33672;SDS011;20011;51.510;9.942;2023-02-13T18:12:46;21.17;;;9.80;;
33672;SDS011;20011;51.510;9.942;2023-02-13T18:15:14;15.57;;;8.30;;
33672;SDS011;20011;51.510;9.942;2023-02-13T18:17:42;17.80;;;8.75;;
33672;SDS011;20011;51.510;9.942;2023-02-13T18:20:13;13.00;;;8.05;;
33672;SDS011;20011;51.510;9.942;2023-02-13T18:22:42;16.80;;;7.53;;
33672;SDS011;20011;51.510;9.942;2023-02-13T18:25:10;12.02;;;7.60;;
33672;SDS011;20011;51.510;9.942;2023-02-13T18:27:37;11.15;;;7.30;;
33672;SDS011;20011;51.510;9.942;2023-02-13T18:30:05;14.20;;;8.05;;